Terminal Aerodrome Forecast
Issued by NWS

Current Version | Previous Version | Text Only | Print | Product List | Glossary On
Versions: 1 2 3 4 5 6 7 8 9 10 11 12 13 14
369
FTUS45 KRIW 171728
TAFWRL
TAF
KWRL 171728Z 1718/1818 VRB03KT P6SM SKC
     FM180600 VRB03KT 2SM BR SCT004
     FM180900 VRB03KT 3/4SM BR VV003
     FM181500 VRB03KT 2SM BR SCT004
     FM181700 VRB03KT P6SM SCT250=

USA.gov is the U.S. government's official web portal to all federal, state and local government web resources and services.